Brushvale, Minnesota
Current Conditions -  °F | °C
As of 10:35 PM on Sunday 25 Jan 2015 (Local Time) from KBWP Reporting Station
Overcast Overcast  
Wind Chill: -8°   Ceiling: 2900
Heat Index: -2°   Visibility: 10mi
Dew Point: -5°   Wind: 12mph
Humidity: 80%   Direction: 170°S
Pressure: 29.87"   Gusts: NA
Location:  46.3422°N, 96.4653°W
Report Text: KBWP 260435Z AUTO 17010KT 10SM OVC029 M02/M05 A2987 RMK AO1
Loading
Personal Weather Stations






























Interactive Weather Map New forecast layout! Learn more

10-Day Weather Forecast

Advertisements
Track Severe Weather on mobile